Saint George Island, Florida
Current Conditions -  °F | °C
As of 9:53 AM on Tuesday 21 Oct 2014 (Local Time) from KAAF Reporting Station
Clear Clear  
Wind Chill: 22°   Ceiling: Unl
Heat Index: 22°   Visibility: 10mi
Dew Point: 16°   Wind: 7mph
Humidity: 68%   Direction: 40°NE
Pressure: 30.01"   Gusts: NA
Location:  29.8852°N, 84.8748°W
Report Text: KAAF 211353Z AUTO 04006KT 10SM CLR 22/16 A3001 RMK AO2 SLP161 T02220161 TSNO $
Loading
Personal Weather Stations






























Interactive Weather Map
Tropical Storm Tracking
New forecast layout! Learn more

10-Day Weather Forecast

Advertisements
Track Severe Weather on mobile